Time;durP1;ratioP1;P1;durP2;ratioP2;P2;SDS_P1;SDS_P2;PMS_P1;PMS_P2;Temp;Humidity;BMP_temperature;BMP_pressure;BME280_temperature;BME280_humidity;BME280_pressure;Samples;Min_cycle;Max_cycle;Signal;HPM_P1;HPM_P2
2022/04/17 00:00:20;;;;;;;16.88;8.30;;;;;;;5.02;67.48;102745.44;6006228;28;20113;-70
2022/04/17 00:03:15;;;;;;;20.43;7.90;;;;;;;4.78;68.14;102746.41;6004668;28;20035;-70
2022/04/17 00:06:12;;;;;;;17.65;8.25;;;;;;;4.94;67.58;102746.66;6005286;28;20398;-70
2022/04/17 00:09:08;;;;;;;17.13;7.15;;;;;;;4.83;67.10;102739.19;6004829;28;20035;-69
2022/04/17 00:12:03;;;;;;;22.98;7.78;;;;;;;4.96;68.50;102734.31;6004050;28;20043;-70
2022/04/17 00:15:00;;;;;;;20.20;8.70;;;;;;;4.64;66.33;102733.81;6004848;28;20419;-70
2022/04/17 00:17:55;;;;;;;17.55;7.22;;;;;;;4.70;66.16;102730.91;6005293;28;20058;-70
2022/04/17 00:20:51;;;;;;;24.40;7.77;;;;;;;4.87;67.20;102718.88;6004478;28;20502;-70
2022/04/17 00:23:46;;;;;;;21.17;8.77;;;;;;;4.75;65.96;102722.88;6004708;28;20031;-69
2022/04/17 00:26:41;;;;;;;19.67;7.60;;;;;;;4.69;65.58;102721.34;6004868;28;20045;-69
2022/04/17 00:29:37;;;;;;;18.57;8.03;;;;;;;4.75;65.94;102723.72;5986399;28;20066;-71
2022/04/17 00:32:32;;;;;;;23.40;8.25;;;;;;;4.74;66.43;102718.53;6003809;28;20039;-70
2022/04/17 00:35:27;;;;;;;21.87;7.43;;;;;;;4.85;66.59;102718.97;6004194;28;20105;-68
2022/04/17 00:38:23;;;;;;;21.42;7.75;;;;;;;4.73;67.37;102722.91;6004038;28;20066;-71
2022/04/17 00:41:18;;;;;;;15.00;7.30;;;;;;;4.68;69.50;102713.50;6004360;28;20601;-70
2022/04/17 00:44:15;;;;;;;22.42;7.95;;;;;;;4.67;69.06;102712.63;6005806;28;20039;-70
2022/04/17 00:47:15;;;;;;;21.42;7.70;;;;;;;4.50;70.54;102708.97;6008639;28;20038;-70
2022/04/17 00:50:11;;;;;;;18.17;7.80;;;;;;;4.43;69.84;102700.44;6004026;28;20501;-70
2022/04/17 00:53:07;;;;;;;17.42;7.95;;;;;;;4.20;69.27;102708.34;5999174;28;20033;-70
2022/04/17 00:56:06;;;;;;;16.30;7.07;;;;;;;4.22;70.07;102709.97;5985387;28;20035;-69
2022/04/17 00:59:02;;;;;;;14.77;6.72;;;;;;;4.24;71.01;102702.03;6004178;28;20277;-69
2022/04/17 01:01:58;;;;;;;15.75;7.10;;;;;;;4.03;70.77;102702.81;6005204;28;20201;-70
2022/04/17 01:04:53;;;;;;;17.50;6.90;;;;;;;4.11;72.09;102695.53;6013767;28;20026;-70
2022/04/17 01:07:48;;;;;;;19.23;6.90;;;;;;;4.04;72.65;102699.31;5986820;28;20026;-70
2022/04/17 01:10:44;;;;;;;22.80;8.57;;;;;;;4.21;72.14;102691.69;6002584;28;20026;-71
2022/04/17 01:13:42;;;;;;;16.05;7.80;;;;;;;3.97;71.87;102684.66;6003201;28;20043;-70
2022/04/17 01:16:38;;;;;;;15.20;7.30;;;;;;;3.69;73.32;102686.56;5989797;28;20035;-70
2022/04/17 01:19:37;;;;;;;18.13;6.25;;;;;;;3.65;72.03;102682.34;5986585;28;20049;-70
2022/04/17 01:22:32;;;;;;;17.33;6.72;;;;;;;3.65;71.32;102682.34;6002736;28;20121;-70
2022/04/17 01:28:42;;;;;;;16.85;7.13;;;;;;;3.84;72.84;102684.25;6012875;28;20026;-70
2022/04/17 01:31:37;;;;;;;17.30;7.30;;;;;;;3.81;72.97;102691.38;5983011;28;20642;-70
2022/04/17 01:34:33;;;;;;;12.93;6.33;;;;;;;3.61;72.38;102697.34;6002704;28;20043;-70
2022/04/17 01:37:28;;;;;;;13.43;6.88;;;;;;;3.78;74.32;102697.59;6001949;28;20049;-70
2022/04/17 01:40:23;;;;;;;14.30;6.23;;;;;;;3.68;73.59;102700.59;6001516;28;20038;-70
2022/04/17 01:43:19;;;;;;;25.40;7.60;;;;;;;3.69;73.50;102689.19;6002385;28;20031;-70
2022/04/17 01:46:14;;;;;;;14.67;6.37;;;;;;;3.53;73.54;102692.34;6015985;28;20313;-70
2022/04/17 01:49:09;;;;;;;14.30;6.47;;;;;;;3.42;73.61;102691.88;6001426;28;20035;-70
2022/04/17 01:52:07;;;;;;;14.85;6.05;;;;;;;3.39;73.01;102698.97;5999857;28;20026;-70
2022/04/17 01:55:03;;;;;;;13.93;6.40;;;;;;;3.12;71.43;102694.63;6000931;28;20636;-70
2022/04/17 01:57:58;;;;;;;17.65;6.97;;;;;;;2.94;72.99;102682.97;6000471;28;20045;-70
2022/04/17 02:00:53;;;;;;;15.50;7.40;;;;;;;2.91;73.04;102676.06;6000854;28;20041;-70
2022/04/17 02:03:49;;;;;;;17.05;6.50;;;;;;;3.03;74.20;102685.31;6000961;28;20552;-70
2022/04/17 02:06:44;;;;;;;13.60;6.10;;;;;;;3.03;73.62;102687.06;6000437;28;20027;-70
2022/04/17 02:09:39;;;;;;;20.00;7.47;;;;;;;3.24;72.86;102684.59;6000764;28;20274;-70
2022/04/17 02:12:35;;;;;;;12.07;6.03;;;;;;;3.31;72.57;102685.25;5999940;28;20051;-70
2022/04/17 02:15:30;;;;;;;13.60;5.53;;;;;;;2.98;72.69;102681.97;6007619;28;20287;-70
2022/04/17 02:18:26;;;;;;;13.67;5.90;;;;;;;2.87;73.03;102669.22;6007757;28;20074;-70
2022/04/17 02:21:22;;;;;;;15.05;6.35;;;;;;;2.93;73.43;102668.19;6002207;28;20114;-70
2022/04/17 02:24:17;;;;;;;12.10;5.88;;;;;;;3.11;73.66;102662.31;6001781;28;20104;-70
2022/04/17 02:27:12;;;;;;;15.27;5.47;;;;;;;3.14;73.06;102662.22;6002216;28;20041;-70
2022/04/17 02:30:08;;;;;;;14.60;5.93;;;;;;;2.93;72.74;102653.31;6001237;28;20119;-70
2022/04/17 02:33:04;;;;;;;14.45;6.53;;;;;;;2.62;73.06;102652.56;6002119;28;20079;-70
2022/04/17 02:35:59;;;;;;;12.97;5.80;;;;;;;2.44;73.15;102641.81;6002113;28;20042;-70
2022/04/17 02:38:55;;;;;;;15.70;5.28;;;;;;;2.46;73.90;102646.09;6002041;28;20448;-70
2022/04/17 02:41:51;;;;;;;11.93;5.45;;;;;;;2.40;73.87;102644.50;6001831;28;20073;-70
2022/04/17 02:44:46;;;;;;;16.03;5.80;;;;;;;2.45;74.59;102638.28;6002924;28;20095;-69
2022/04/17 02:47:44;;;;;;;10.27;5.03;;;;;;;2.51;74.89;102643.31;6002407;28;20114;-69
2022/04/17 02:50:39;;;;;;;11.73;4.95;;;;;;;2.47;74.26;102641.72;6001209;28;20509;-70
2022/04/17 02:53:35;;;;;;;15.93;6.20;;;;;;;2.31;74.53;102642.16;6000248;28;20043;-70
2022/04/17 02:56:30;;;;;;;21.87;6.63;;;;;;;2.39;74.46;102642.78;6000179;28;20065;-70
2022/04/17 02:59:25;;;;;;;13.60;5.97;;;;;;;2.42;74.92;102633.97;5999257;28;20290;-70
2022/04/17 03:05:37;;;;;;;13.13;5.75;;;;;;;2.36;74.02;102635.03;6000251;28;20035;-70
2022/04/17 03:08:33;;;;;;;17.73;7.13;;;;;;;2.24;74.18;102632.78;6001581;28;20062;-69
2022/04/17 03:11:29;;;;;;;18.47;6.73;;;;;;;2.20;74.67;102635.56;6000759;28;20066;-70
2022/04/17 03:14:24;;;;;;;15.05;6.55;;;;;;;2.20;74.97;102636.38;6003224;28;20038;-70
2022/04/17 03:17:19;;;;;;;18.37;6.70;;;;;;;2.07;74.56;102624.56;6002090;28;20027;-70
2022/04/17 03:20:15;;;;;;;11.83;5.83;;;;;;;2.00;75.62;102625.66;6001043;28;20054;-70
2022/04/17 03:23:10;;;;;;;14.70;5.75;;;;;;;1.91;75.11;102611.97;6002115;28;20077;-71
2022/04/17 03:26:05;;;;;;;10.27;5.03;;;;;;;1.82;75.25;102623.59;6001529;28;20031;-70
2022/04/17 03:29:01;;;;;;;13.47;5.33;;;;;;;1.72;76.01;102620.34;6001791;28;20077;-70
2022/04/17 03:31:56;;;;;;;9.87;5.03;;;;;;;1.68;76.58;102617.88;6000759;28;20459;-70
2022/04/17 03:34:52;;;;;;;13.77;5.35;;;;;;;1.72;76.04;102606.41;6001224;28;20038;-70
2022/04/17 03:37:47;;;;;;;13.73;5.50;;;;;;;1.64;76.65;102611.88;6002028;28;20042;-70
2022/04/17 03:40:42;;;;;;;11.50;5.27;;;;;;;1.60;76.40;102614.63;6003931;28;20042;-70
2022/04/17 03:43:38;;;;;;;13.03;4.90;;;;;;;1.48;76.28;102615.81;6005785;28;20037;-70
2022/04/17 03:46:33;;;;;;;15.53;6.60;;;;;;;1.42;76.86;102609.88;6007703;28;20027;-70
2022/04/17 03:49:31;;;;;;;11.93;5.80;;;;;;;1.55;77.10;102606.88;6005701;28;20038;-70
2022/04/17 03:52:37;;;;;;;13.77;6.05;;;;;;;1.42;77.29;102609.88;6005342;28;20114;-70
2022/04/17 03:55:33;;;;;;;14.15;6.10;;;;;;;1.39;77.39;102609.94;6005397;28;20042;-70
2022/04/17 03:58:28;;;;;;;14.25;5.68;;;;;;;1.44;76.95;102608.09;6005786;28;20058;-70
2022/04/17 04:01:26;;;;;;;13.80;5.57;;;;;;;1.36;77.55;102604.81;6004442;28;20051;-70
2022/04/17 04:04:22;;;;;;;15.90;6.03;;;;;;;1.52;77.60;102600.91;6005566;28;20463;-69
2022/04/17 04:07:17;;;;;;;13.50;6.28;;;;;;;1.48;76.99;102604.47;6005536;28;20130;-70
2022/04/17 04:10:12;;;;;;;13.67;6.03;;;;;;;1.38;76.90;102595.19;6004009;28;20035;-70
2022/04/17 04:13:07;;;;;;;13.37;5.87;;;;;;;1.33;76.71;102599.69;6005288;28;20045;-70
2022/04/17 04:16:03;;;;;;;16.37;6.33;;;;;;;1.28;76.80;102591.13;6005266;28;20524;-70
2022/04/17 04:18:58;;;;;;;15.50;5.40;;;;;;;1.36;76.75;102594.38;6005284;28;20027;-70
2022/04/17 04:21:53;;;;;;;15.30;5.03;;;;;;;1.44;75.74;102585.41;6004809;28;20064;-70
2022/04/17 04:24:49;;;;;;;15.60;5.10;;;;;;;1.40;75.35;102575.09;6005246;28;20039;-70
2022/04/17 04:30:58;;;;;;;9.27;4.32;;;;;;;1.43;74.87;102565.41;6003322;28;20046;-70
2022/04/17 04:33:54;;;;;;;10.85;4.85;;;;;;;1.43;73.98;102573.25;6003193;28;20042;-70
2022/04/17 04:36:49;;;;;;;11.83;5.07;;;;;;;1.71;73.92;102568.13;6004297;28;20379;-70
2022/04/17 04:39:44;;;;;;;10.90;4.60;;;;;;;1.74;73.28;102562.75;6003623;28;20042;-70
2022/04/17 04:42:39;;;;;;;15.53;3.83;;;;;;;1.90;72.69;102571.91;6001079;28;20069;-70
2022/04/17 04:52:03;;;;;;;8.90;4.22;;;;;;;2.14;72.55;102571.16;6001031;28;20034;-70
2022/04/17 04:54:59;;;;;;;10.73;4.88;;;;;;;2.24;72.60;102562.13;6001897;28;20026;-70
2022/04/17 04:57:55;;;;;;;8.63;3.92;;;;;;;2.31;71.36;102568.88;6004272;28;20038;-71
2022/04/17 05:00:50;;;;;;;9.97;3.83;;;;;;;2.15;71.35;102578.09;6003504;28;20398;-70
2022/04/17 05:03:46;;;;;;;11.00;4.40;;;;;;;2.21;72.11;102577.91;6004018;28;20030;-71
2022/04/17 05:06:41;;;;;;;11.43;3.92;;;;;;;2.48;72.05;102573.56;6004028;28;20034;-71
2022/04/17 05:09:37;;;;;;;14.27;4.40;;;;;;;2.51;73.21;102575.25;5974566;28;20063;-70
2022/04/17 05:12:33;;;;;;;9.57;3.95;;;;;;;2.50;72.71;102584.03;6003609;28;20038;-71
2022/04/17 05:15:28;;;;;;;7.90;3.63;;;;;;;2.59;72.86;102586.31;6003282;28;20046;-70
2022/04/17 05:18:23;;;;;;;9.20;4.20;;;;;;;2.68;73.00;102588.66;6003723;28;20027;-70
2022/04/17 05:21:21;;;;;;;10.87;4.70;;;;;;;2.27;72.10;102582.97;6002667;28;20038;-71
2022/04/17 05:24:16;;;;;;;10.73;5.28;;;;;;;2.58;71.96;102592.50;6003634;28;20042;-71
2022/04/17 05:27:12;;;;;;;12.98;5.38;;;;;;;3.12;70.49;102588.06;6003056;28;20403;-70
2022/04/17 05:30:08;;;;;;;12.98;5.97;;;;;;;3.40;68.55;102586.16;6002624;28;20105;-70
2022/04/17 05:33:04;;;;;;;11.90;4.80;;;;;;;4.57;65.17;102589.59;6003905;28;20088;-71
2022/04/17 05:35:59;;;;;;;13.53;4.80;;;;;;;4.93;62.49;102587.22;6002825;28;20418;-70
2022/04/17 05:38:55;;;;;;;7.63;4.10;;;;;;;5.23;61.61;102578.03;6003189;28;20282;-70
2022/04/17 05:41:51;;;;;;;8.57;3.80;;;;;;;6.01;58.59;102580.72;6002181;28;20030;-70
2022/04/17 05:44:47;;;;;;;10.50;4.13;;;;;;;5.25;59.79;102586.72;6006315;28;20544;-70
2022/04/17 05:47:42;;;;;;;7.45;3.78;;;;;;;5.74;58.33;102577.53;6002996;28;20114;-70
2022/04/17 05:50:38;;;;;;;8.00;3.30;;;;;;;5.51;59.86;102585.59;5999178;28;20043;-70
2022/04/17 05:53:34;;;;;;;6.63;3.35;;;;;;;5.56;60.33;102587.09;6008186;28;20062;-71
2022/04/17 05:56:29;;;;;;;7.77;3.80;;;;;;;5.90;59.03;102595.22;6003030;28;20394;-71
2022/04/17 05:59:24;;;;;;;11.43;3.93;;;;;;;6.18;58.31;102588.69;5983701;28;20297;-71
2022/04/17 06:02:19;;;;;;;7.30;3.03;;;;;;;6.20;58.54;102586.81;5994651;28;20325;-71
2022/04/17 06:05:17;;;;;;;7.43;2.93;;;;;;;6.54;56.48;102584.31;6000468;28;20035;-71
2022/04/17 06:08:12;;;;;;;8.65;3.47;;;;;;;6.77;56.52;102578.75;5995796;28;20043;-70
2022/04/17 06:11:08;;;;;;;7.87;3.30;;;;;;;6.27;57.34;102577.72;6000589;28;20030;-70
2022/04/17 06:14:03;;;;;;;11.33;3.93;;;;;;;6.51;56.86;102572.13;6001248;28;20267;-70
2022/04/17 06:16:58;;;;;;;12.17;3.40;;;;;;;6.83;55.46;102570.53;6000748;28;20282;-70
2022/04/17 06:19:54;;;;;;;7.43;3.20;;;;;;;6.49;58.08;102573.13;5997469;28;20389;-70
2022/04/17 06:22:49;;;;;;;7.53;3.67;;;;;;;7.08;56.80;102578.94;5996820;28;20388;-70
2022/04/17 06:25:45;;;;;;;7.47;3.63;;;;;;;7.08;55.59;102578.06;6000741;28;20118;-70
2022/04/17 06:28:40;;;;;;;6.00;3.22;;;;;;;6.93;54.70;102577.06;6000684;28;20278;-70
2022/04/17 06:31:36;;;;;;;7.43;3.63;;;;;;;7.43;53.84;102578.91;5999660;28;20363;-70
2022/04/17 06:34:31;;;;;;;10.90;3.50;;;;;;;7.51;53.39;102576.72;5996403;28;20762;-70
2022/04/17 06:37:26;;;;;;;7.63;3.40;;;;;;;7.18;51.68;102580.16;6001061;28;20274;-70
2022/04/17 06:40:26;;;;;;;7.20;3.90;;;;;;;6.52;54.56;102594.06;5995998;28;20035;-70
2022/04/17 06:43:22;;;;;;;9.00;3.25;;;;;;;6.98;53.70;102580.34;6001033;28;20290;-69
2022/04/17 06:46:17;;;;;;;5.90;2.73;;;;;;;7.26;53.31;102592.97;6001692;28;20038;-70
2022/04/17 06:49:13;;;;;;;8.43;3.37;;;;;;;7.48;52.36;102595.34;6001109;28;20462;-70
2022/04/17 06:52:09;;;;;;;10.32;3.13;;;;;;;6.87;53.78;102601.13;6000871;28;20058;-70
2022/04/17 06:55:08;;;;;;;8.60;3.40;;;;;;;6.83;54.52;102596.06;6001509;28;20034;-69
2022/04/17 06:58:04;;;;;;;6.50;3.15;;;;;;;6.87;54.62;102595.00;6001119;28;20380;-69
2022/04/17 07:00:59;;;;;;;7.65;3.30;;;;;;;7.26;52.89;102587.69;5999598;28;20122;-69
2022/04/17 07:03:55;;;;;;;6.50;2.83;;;;;;;7.34;52.52;102589.97;5999752;28;20045;-69
2022/04/17 07:06:50;;;;;;;6.77;2.83;;;;;;;7.26;52.84;102581.56;6000010;28;20042;-69
2022/04/17 07:09:45;;;;;;;5.40;2.60;;;;;;;8.20;51.79;102578.22;5999070;28;20411;-70
2022/04/17 07:12:44;;;;;;;7.43;2.70;;;;;;;8.54;49.31;102579.84;6000563;28;20043;-69
2022/04/17 07:15:39;;;;;;;5.70;2.60;;;;;;;8.48;49.78;102576.69;6005984;28;20034;-70
2022/04/17 07:18:35;;;;;;;9.20;2.60;;;;;;;8.48;49.54;102577.53;6006073;28;20058;-69
2022/04/17 07:21:30;;;;;;;9.02;2.75;;;;;;;8.57;49.12;102581.44;6005607;28;20030;-69
2022/04/17 07:24:26;;;;;;;6.43;2.73;;;;;;;9.05;48.56;102583.91;6003256;28;20034;-69
2022/04/17 07:27:21;;;;;;;4.90;2.40;;;;;;;9.14;47.45;102583.38;6004178;28;20035;-70
2022/04/17 07:30:22;;;;;;;7.30;2.90;;;;;;;8.92;48.88;102588.22;6004424;28;20061;-69
2022/04/17 07:33:17;;;;;;;5.10;2.72;;;;;;;8.77;47.35;102591.75;6000007;28;20047;-69
2022/04/17 07:36:13;;;;;;;6.97;2.80;;;;;;;8.60;47.89;102583.91;6005030;28;20493;-70
2022/04/17 07:39:08;;;;;;;5.40;2.43;;;;;;;8.42;49.13;102577.03;6012373;28;20030;-69
2022/04/17 07:42:03;;;;;;;6.93;2.73;;;;;;;8.65;48.69;102576.56;6004136;28;20089;-69
2022/04/17 07:44:58;;;;;;;4.33;2.50;;;;;;;9.09;47.35;102569.56;6005384;28;20070;-69
2022/04/17 07:47:54;;;;;;;7.33;2.50;;;;;;;8.94;47.72;102570.47;6004734;28;20277;-69
2022/04/17 07:50:52;;;;;;;6.60;2.38;;;;;;;9.34;45.88;102576.88;5986799;28;20090;-70
2022/04/17 07:53:48;;;;;;;4.47;2.20;;;;;;;9.14;44.85;102575.41;6004546;28;20070;-70
2022/04/17 07:56:43;;;;;;;5.03;2.22;;;;;;;8.86;45.69;102577.97;6004645;28;20035;-70
2022/04/17 07:59:40;;;;;;;3.10;1.80;;;;;;;9.25;45.78;102578.28;6003075;28;20133;-69
2022/04/17 08:02:49;;;;;;;3.13;1.60;;;;;;;9.61;43.82;102567.25;6004227;28;20085;-70
2022/04/17 08:05:45;;;;;;;3.83;1.83;;;;;;;9.88;44.20;102570.00;6003905;28;20470;-69
2022/04/17 08:08:40;;;;;;;4.13;1.80;;;;;;;9.97;43.18;102569.44;6003735;28;20034;-70
2022/04/17 08:11:37;;;;;;;4.32;2.00;;;;;;;9.94;42.53;102556.38;6004046;28;20062;-69
2022/04/17 08:14:33;;;;;;;6.97;1.90;;;;;;;9.91;41.21;102560.06;6002208;28;20074;-69
2022/04/17 08:17:28;;;;;;;5.43;1.77;;;;;;;9.71;39.38;102554.28;6003532;28;20047;-69
2022/04/17 08:20:23;;;;;;;4.83;1.50;;;;;;;9.65;38.93;102547.56;6003838;28;20490;-69
2022/04/17 08:23:19;;;;;;;3.22;1.50;;;;;;;10.11;39.36;102540.22;6002860;28;20055;-70
2022/04/17 08:26:14;;;;;;;4.72;1.70;;;;;;;10.37;38.43;102531.50;6004316;28;20038;-70
2022/04/17 08:29:10;;;;;;;2.83;1.60;;;;;;;10.65;38.96;102526.06;6004423;28;20046;-69
2022/04/17 08:32:05;;;;;;;3.80;1.77;;;;;;;10.33;39.74;102529.97;6004675;28;20030;-70
2022/04/17 08:35:00;;;;;;;4.60;1.60;;;;;;;10.29;39.16;102523.19;6004917;28;20081;-70
2022/04/17 08:38:00;;;;;;;3.70;1.53;;;;;;;10.30;37.64;102524.03;6004776;28;20035;-70
2022/04/17 08:40:56;;;;;;;4.75;1.42;;;;;;;10.19;38.14;102522.09;6003887;28;20035;-70
2022/04/17 08:43:52;;;;;;;3.63;1.20;;;;;;;10.48;35.41;102514.88;5986922;28;20033;-70
2022/04/17 08:46:47;;;;;;;3.07;1.30;;;;;;;10.41;34.20;102506.47;6017763;28;20046;-71
2022/04/17 08:49:43;;;;;;;3.00;1.33;;;;;;;10.49;34.03;102514.75;6004442;28;20402;-71
2022/04/17 08:52:39;;;;;;;2.33;1.10;;;;;;;10.92;33.89;102512.75;6004001;28;20038;-70
2022/04/17 08:55:34;;;;;;;2.97;1.30;;;;;;;10.72;33.69;102513.25;5987453;28;20701;-70
2022/04/17 08:58:30;;;;;;;2.55;1.08;;;;;;;10.75;32.58;102510.38;6004231;28;20033;-70
2022/04/17 09:01:26;;;;;;;2.25;1.00;;;;;;;10.84;32.44;102511.56;5986673;28;20035;-69
2022/04/17 09:04:21;;;;;;;2.25;1.10;;;;;;;11.10;32.11;102510.66;6003919;28;20030;-71
2022/04/17 09:07:17;;;;;;;2.53;0.90;;;;;;;11.23;31.32;102506.19;6004396;28;20042;-70
2022/04/17 09:10:23;;;;;;;2.13;0.77;;;;;;;11.23;31.54;102500.88;6003385;28;20042;-70
2022/04/17 09:13:31;;;;;;;1.58;0.90;;;;;;;11.04;31.46;102505.75;6004237;28;20038;-71
2022/04/17 09:16:33;;;;;;;1.80;0.90;;;;;;;11.20;30.91;102501.09;6003191;28;20042;-71
2022/04/17 09:19:28;;;;;;;3.10;1.23;;;;;;;10.84;31.82;102498.31;5999354;28;20042;-71
2022/04/17 09:22:25;;;;;;;2.60;1.10;;;;;;;11.11;31.91;102491.13;6003498;28;20109;-71
2022/04/17 09:25:25;;;;;;;3.75;1.30;;;;;;;11.24;32.07;102470.72;6003561;28;20042;-70
2022/04/17 09:28:21;;;;;;;2.83;1.10;;;;;;;11.43;32.05;102489.72;6004143;28;20489;-71
2022/04/17 09:31:16;;;;;;;2.83;1.30;;;;;;;11.57;31.85;102478.13;6003162;28;20034;-70
2022/04/17 09:34:11;;;;;;;2.60;1.00;;;;;;;11.46;31.93;102476.22;5986313;28;20050;-70
2022/04/17 09:37:11;;;;;;;1.93;0.83;;;;;;;11.52;31.73;102475.78;6003351;28;20070;-71
2022/04/17 09:40:07;;;;;;;2.22;1.00;;;;;;;11.54;32.40;102471.22;6002506;28;20097;-70
2022/04/17 09:43:13;;;;;;;1.65;1.00;;;;;;;11.25;32.15;102475.09;6003547;28;20031;-71
2022/04/17 09:46:09;;;;;;;4.70;0.95;;;;;;;11.57;31.67;102473.66;6005850;28;20047;-71
2022/04/17 09:49:07;;;;;;;5.10;0.95;;;;;;;11.84;30.67;102455.75;6003471;28;20035;-70
2022/04/17 09:52:07;;;;;;;1.70;1.00;;;;;;;11.83;31.50;102454.06;6002694;28;20066;-71
2022/04/17 09:55:03;;;;;;;1.75;0.80;;;;;;;12.22;32.65;102449.44;6003229;28;20145;-70
2022/04/17 09:57:58;;;;;;;2.10;0.88;;;;;;;12.33;31.48;102449.47;6003332;28;20489;-70
2022/04/17 10:00:58;;;;;;;2.13;0.95;;;;;;;12.40;31.56;102437.41;6002527;28;20053;-70
2022/04/17 10:03:54;;;;;;;1.95;1.00;;;;;;;12.58;31.88;102438.69;6003231;28;20038;-70
2022/04/17 10:07:04;;;;;;;2.92;1.27;;;;;;;12.27;30.86;102432.16;6002396;28;20042;-70
2022/04/17 10:09:59;;;;;;;1.85;1.00;;;;;;;12.27;30.82;102428.66;6003012;28;20089;-69
2022/04/17 10:12:54;;;;;;;3.37;1.30;;;;;;;11.78;31.36;102434.09;6002533;28;20046;-70
2022/04/17 10:15:52;;;;;;;2.15;0.93;;;;;;;12.51;32.82;102429.47;6003001;28;20278;-70
2022/04/17 10:18:48;;;;;;;3.15;1.02;;;;;;;12.68;31.85;102410.41;5985554;28;20089;-70
2022/04/17 10:21:45;;;;;;;5.05;1.40;;;;;;;12.94;31.57;102411.88;5984400;28;20074;-70
2022/04/17 10:24:49;;;;;;;2.35;0.90;;;;;;;12.85;31.58;102412.63;6002689;28;20031;-70
2022/04/17 10:27:54;;;;;;;1.73;0.82;;;;;;;12.83;30.45;102403.88;6002805;28;20092;-70
2022/04/17 10:31:17;;;;;;;3.10;1.30;;;;;;;12.93;30.32;102404.03;6002292;28;20031;-70
2022/04/17 10:34:39;;;;;;;2.92;1.00;;;;;;;12.69;29.83;102406.75;6002721;28;20459;-70
2022/04/17 10:38:12;;;;;;;2.10;1.20;;;;;;;12.97;31.44;102394.81;5992253;28;20424;-69
2022/04/17 10:41:08;;;;;;;3.20;1.20;;;;;;;12.83;31.24;102385.25;6002590;28;20054;-70
2022/04/17 10:44:04;;;;;;;1.63;0.98;;;;;;;13.07;29.53;102383.34;6002817;28;20038;-70
2022/04/17 10:47:03;;;;;;;2.28;0.93;;;;;;;12.62;29.49;102375.41;6006849;28;20038;-70
2022/04/17 10:50:00;;;;;;;2.47;1.30;;;;;;;12.64;29.99;102362.84;6010086;28;20134;-70
2022/04/17 10:52:55;;;;;;;2.55;1.02;;;;;;;12.42;30.22;102366.28;6009737;28;20035;-70
2022/04/17 10:56:05;;;;;;;2.60;1.27;;;;;;;12.93;29.84;102364.94;6009542;28;20454;-71
2022/04/17 10:59:05;;;;;;;2.28;1.00;;;;;;;12.93;29.36;102362.28;6010191;28;20042;-71
2022/04/17 11:02:22;;;;;;;2.80;1.45;;;;;;;13.32;29.15;102352.94;6009384;28;20038;-71
2022/04/17 11:08:57;;;;;;;3.83;1.33;;;;;;;13.35;29.68;102344.69;6010187;28;20121;-71
2022/04/17 11:11:52;;;;;;;3.25;1.60;;;;;;;13.69;30.55;102335.66;6009039;28;20158;-70
2022/04/17 11:14:54;;;;;;;3.67;2.22;;;;;;;13.69;31.77;102332.16;5992628;28;20065;-69
2022/04/17 11:17:49;;;;;;;;;;;;;;;13.85;30.66;102329.91;6010220;28;20465;-69
2022/04/17 11:20:52;;;;;;;3.35;1.23;;;;;;;13.66;29.02;102324.41;6008892;28;19910;-70
2022/04/17 11:24:02;;;;;;;4.65;1.50;;;;;;;13.51;28.97;102320.31;6009444;28;20041;-70
2022/04/17 11:26:57;;;;;;;3.63;1.48;;;;;;;13.80;29.37;102318.78;6009656;28;20045;-71
2022/04/17 11:29:52;;;;;;;2.38;1.40;;;;;;;13.96;29.76;102321.84;6009839;28;20475;-70
2022/04/17 11:32:50;;;;;;;3.00;1.40;;;;;;;14.02;29.68;102315.16;6009427;28;20039;-71
2022/04/17 11:35:46;;;;;;;3.15;1.25;;;;;;;13.88;30.22;102312.81;6009763;28;20042;-70
2022/04/17 11:38:42;;;;;;;6.53;1.95;;;;;;;13.82;31.25;102307.97;6009572;28;20034;-71
2022/04/17 11:41:39;;;;;;;2.72;1.50;;;;;;;13.73;30.55;102307.75;6009181;28;20050;-71
2022/04/17 11:44:34;;;;;;;2.33;1.27;;;;;;;13.65;29.83;102306.69;6013492;28;20034;-71
2022/04/17 11:47:38;;;;;;;5.20;1.57;;;;;;;13.56;30.06;102304.81;6001019;28;20031;-71
2022/04/17 11:50:34;;;;;;;3.35;1.40;;;;;;;13.75;30.13;102302.31;5999224;28;20277;-70
2022/04/17 11:53:31;;;;;;;3.55;1.67;;;;;;;14.09;30.75;102295.84;6009146;28;20039;-71
2022/04/17 11:56:50;;;;;;;3.08;1.60;;;;;;;14.24;30.73;102291.84;6009669;28;20031;-71
2022/04/17 11:59:49;;;;;;;5.38;2.15;;;;;;;13.85;32.41;102310.38;6006079;28;20034;-71
2022/04/17 12:02:44;;;;;;;6.10;2.30;;;;;;;14.15;32.80;102290.00;6005245;28;20199;-71
2022/04/17 12:05:40;;;;;;;3.27;2.00;;;;;;;14.25;31.57;102290.88;6005492;28;20042;-70
2022/04/17 12:08:40;;;;;;;4.27;2.17;;;;;;;14.05;31.86;102289.06;6005880;28;20382;-70
2022/04/17 12:11:36;;;;;;;5.05;2.35;;;;;;;14.24;33.14;102262.50;6005008;28;20274;-70
2022/04/17 12:14:32;;;;;;;4.03;2.20;;;;;;;14.32;31.37;102265.38;6005791;28;20085;-70
2022/04/17 12:17:28;;;;;;;4.07;2.25;;;;;;;13.91;31.15;102265.41;6005482;28;20031;-70
2022/04/17 12:20:24;;;;;;;5.05;2.45;;;;;;;14.03;31.51;102258.16;6004544;28;20062;-71
2022/04/17 12:23:21;;;;;;;3.72;1.90;;;;;;;13.87;31.00;102253.28;6004984;28;20089;-70
2022/04/17 12:26:16;;;;;;;3.70;1.98;;;;;;;13.89;28.99;102245.97;6004818;28;20122;-70
2022/04/17 12:29:12;;;;;;;5.47;2.40;;;;;;;14.09;30.94;102236.28;6005313;28;20035;-70
2022/04/17 12:32:19;;;;;;;4.50;1.90;;;;;;;14.29;31.56;102236.25;5986919;28;20034;-70
2022/04/17 12:35:42;;;;;;;3.55;2.10;;;;;;;14.14;30.76;102228.72;6005005;28;20635;-70
2022/04/17 12:38:39;;;;;;;4.78;1.80;;;;;;;14.17;30.78;102248.00;6005028;28;20122;-70
2022/04/17 12:41:42;;;;;;;3.70;1.73;;;;;;;14.41;29.85;102236.22;6004159;28;20034;-70
2022/04/17 12:44:37;;;;;;;5.93;2.45;;;;;;;14.16;31.27;102234.78;6009588;28;20061;-70
2022/04/17 12:47:36;;;;;;;5.07;2.37;;;;;;;14.74;31.90;102238.59;6012673;28;20046;-71
2022/04/17 12:50:31;;;;;;;3.88;2.20;;;;;;;14.69;32.07;102224.81;5987403;28;20035;-70
2022/04/17 12:53:35;;;;;;;5.60;2.70;;;;;;;14.57;31.70;102228.53;6004445;28;20031;-70
2022/04/17 12:56:30;;;;;;;3.55;1.92;;;;;;;14.49;30.59;102233.72;6004892;28;20126;-70
2022/04/17 12:59:25;;;;;;;3.90;2.30;;;;;;;14.76;32.25;102234.81;6004335;28;20118;-70
2022/04/17 13:02:25;;;;;;;4.77;2.03;;;;;;;14.80;30.36;102216.69;6003770;28;20038;-71
2022/04/17 13:05:21;;;;;;;4.55;1.98;;;;;;;14.85;29.70;102241.16;6004355;28;20034;-71
2022/04/17 13:08:18;;;;;;;4.57;2.42;;;;;;;15.09;30.16;102222.94;6004357;28;20045;-70
2022/04/17 13:11:20;;;;;;;5.00;2.53;;;;;;;14.63;30.43;102212.84;6003296;28;20035;-71
2022/04/17 13:14:15;;;;;;;4.22;1.80;;;;;;;14.80;29.03;102209.53;6004147;28;20540;-70
2022/04/17 13:17:10;;;;;;;3.45;1.80;;;;;;;15.06;28.79;102207.19;6004414;28;20035;-70
2022/04/17 13:20:06;;;;;;;5.68;3.10;;;;;;;14.89;30.69;102205.19;6003078;28;20077;-70
2022/04/17 13:23:05;;;;;;;5.10;2.78;;;;;;;14.41;30.07;102190.84;6003886;28;20043;-70
2022/04/17 13:26:00;;;;;;;4.75;1.98;;;;;;;14.75;29.62;102187.75;6004152;28;20038;-70
2022/04/17 13:28:56;;;;;;;3.50;1.90;;;;;;;14.88;29.19;102176.78;6003815;28;20057;-71
2022/04/17 13:31:52;;;;;;;5.20;2.50;;;;;;;14.94;30.29;102178.91;6003137;28;20402;-70
2022/04/17 13:34:47;;;;;;;4.40;2.30;;;;;;;15.05;30.13;102176.13;6003491;28;20047;-70
2022/04/17 13:40:56;;;;;;;3.95;2.05;;;;;;;15.13;29.45;102151.38;6002501;28;20026;-71
2022/04/17 13:43:52;;;;;;;4.93;2.38;;;;;;;15.02;29.36;102149.69;6003189;28;20038;-70
2022/04/17 13:46:47;;;;;;;6.43;3.38;;;;;;;15.14;30.32;102140.53;6016551;28;20043;-70
2022/04/17 13:49:42;;;;;;;5.53;2.50;;;;;;;15.16;30.89;102137.72;6003189;28;20034;-70
2022/04/17 13:52:37;;;;;;;3.87;2.20;;;;;;;15.36;29.61;102140.25;6002510;28;20046;-70
2022/04/17 13:55:34;;;;;;;5.27;2.60;;;;;;;15.47;30.19;102134.78;6003464;28;20035;-71
2022/04/17 13:58:30;;;;;;;5.82;2.58;;;;;;;15.39;30.83;102129.25;6003264;28;20062;-70
2022/04/17 14:01:25;;;;;;;4.32;2.17;;;;;;;15.57;30.49;102123.22;6002569;28;20097;-70
2022/04/17 14:04:21;;;;;;;3.60;1.80;;;;;;;15.45;30.49;102118.00;6002994;28;20030;-70
2022/04/17 14:07:16;;;;;;;5.33;2.80;;;;;;;15.75;30.90;102122.34;6003032;28;20117;-70